Flight Track Log - Related Links

Times and Time Zones

All times are in EDT time to prevent confusion due to time zone crossing. See the JZA7995 flight status page for this flight to view local times or setup timezone preferences in your user account.

Time Position Orientation Groundspeed Altitude Reporting Facility
EDT Latitude Longitude Course Direction KTS MPH feet Rate Location/Type
Sun 07:01:45 PM 43.6500 -79.6167 360° North 10 12 500  Level Toronto Center
Sun 07:03:45 PM 43.6500 -79.6167 90° East 10 12 500  Level Toronto Center
Sun 07:04:45 PM 43.6500 -79.6167 90° East 20 23 500  Level Toronto Center
Sun 07:05:45 PM 43.6667 -79.5833 55° Northeast 60 69 500 900 Level Toronto Center
Sun 07:06:45 PM 43.7000 -79.5333 47° Northeast 160 184 2,300 1,900 Climbing Toronto Center
Sun 07:07:45 PM 43.7333 -79.5000 36° Northeast 200 230 4,300 2,200 Climbing Toronto Center
Sun 07:08:45 PM 43.7833 -79.5667 316° Northwest 260 299 6,700 1,350 Climbing Toronto Center
Sun 07:09:45 PM 43.8167 -79.6500 299° West 270 311 7,000 150 Climbing Toronto Center
Sun 07:10:45 PM 43.8167 -79.7667 270° West 260 299 7,000 350 Level Toronto Center
Sun 07:11:45 PM 43.8000 -79.8667 257° West 270 311 7,700 1,750 Climbing Toronto Center
Sun 07:12:45 PM 43.8000 -79.9833 270° West 270 311 10,500 1,750 Climbing Toronto Center
Sun 07:13:45 PM 43.7833 -80.0667 255° West 300 345 11,200 1,350 Climbing Toronto Center
Sun 07:14:45 PM 43.7667 -80.2167 261° West 350 403 13,200 2,050 Climbing Toronto Center
Sun 07:15:45 PM 43.7667 -80.3500 270° West 360 414 15,300 1,900 Climbing Toronto Center
Sun 07:16:45 PM 43.7500 -80.4833 260° West 370 426 17,000 1,450 Climbing Toronto Center
Sun 07:17:45 PM 43.7167 -80.6500 255° West 380 437 18,200 1,400 Climbing Toronto Center
Sun 07:18:45 PM 43.6833 -80.7833 251° West 390 449 19,800 1,700 Climbing Toronto Center
Sun 07:19:45 PM 43.6500 -80.9167 251° West 390 449 21,600 1,550 Climbing Toronto Center
Sun 07:20:45 PM 43.6167 -81.0833 255° West 400 460 22,900 1,200 Climbing Toronto Center
Sun 07:21:45 PM 43.5833 -81.2167 251° West 400 460 24,000 1,100 Climbing Toronto Center
Sun 07:22:45 PM 43.5333 -81.3500 243° Southwest 410 472 25,100 1,050 Climbing Toronto Center
Sun 07:23:45 PM 43.4500 -81.4667 225° Southwest 420 483 26,100 900 Climbing Toronto Center
Sun 07:24:45 PM 43.3667 -81.5833 226° Southwest 430 495 26,900 850 Climbing Toronto Center
Sun 07:25:45 PM 43.3000 -81.7000 232° Southwest 420 483 27,800 1,300 Climbing Toronto Center
Sun 07:26:45 PM 43.2167 -81.8333 229° Southwest 410 472 29,500 1,550 Climbing Toronto Center
Sun 07:27:45 PM 43.1333 -81.9167 216° Southwest 400 460 30,900 1,250 Climbing Toronto Center
Sun 07:28:45 PM 43.0500 -82.0500 229° Southwest 400 460 32,000 550 Climbing Toronto Center
Sun 07:29:45 PM 42.9833 -82.1333 222° Southwest 400 460 32,000  Level Toronto Center
Sun 07:30:45 PM 42.9000 -82.2500 226° Southwest 390 449 32,000  Level Toronto Center
Sun 07:31:52 PM 42.8403 -82.3697 236° Southwest 390 449 32,000 378 Level Cleveland Center
Sun 07:32:52 PM 42.7656 -82.4753 226° Southwest 390 449 32,800 800 Climbing Cleveland Center
Sun 07:33:52 PM 42.6889 -82.5803 225° Southwest 395 455 33,600 600 Climbing Cleveland Center
Sun 07:34:52 PM 42.6119 -82.6878 226° Southwest 395 455 34,000 200 Climbing Cleveland Center
Sun 07:35:52 PM 42.5347 -82.7922 225° Southwest 395 455 34,000  Level Cleveland Center
Sun 07:36:52 PM 42.4578 -82.8994 226° Southwest 395 455 34,000  Level Cleveland Center
Sun 07:37:52 PM 42.3825 -83.0033 226° Southwest 395 455 34,000  Level Cleveland Center
Sun 07:38:52 PM 42.3053 -83.1072 225° Southwest 395 455 34,000  Level Cleveland Center
Sun 07:39:53 PM 42.2278 -83.2164 226° Southwest 395 455 34,000 400 Level Cleveland Center
Sun 07:40:52 PM 42.1417 -83.3303 224° Southwest 400 460 34,800 504 Climbing Cleveland Center
Sun 07:41:52 PM 42.0642 -83.4361 225° Southwest 393 452 35,000 100 Climbing Cleveland Center
Sun 07:42:52 PM 41.9903 -83.5503 229° Southwest 401 461 35,000 300 Level Cleveland Center
Sun 07:43:52 PM 41.9206 -83.6669 231° Southwest 401 461 35,600 500 Climbing Cleveland Center
Sun 07:44:52 PM 41.8486 -83.7833 230° Southwest 406 467 36,000 200 Climbing Cleveland Center
Sun 07:45:52 PM 41.7783 -83.9025 232° Southwest 411 473 36,000  Level Cleveland Center
Sun 07:46:52 PM 41.7061 -84.0183 230° Southwest 416 479 36,000  Level Cleveland Center
Sun 07:47:52 PM 41.6358 -84.1369 232° Southwest 416 479 36,000  Level Cleveland Center
Sun 07:48:52 PM 41.5614 -84.2550 230° Southwest 416 479 36,000  Level Cleveland Center
Sun 07:49:52 PM 41.5017 -84.3597 233° Southwest 410 472 36,000  Level Cleveland Center
Sun 07:51:36 PM 41.3694 -84.5669 230° Southwest 409 471 36,000  Level Chicago Center
Sun 07:52:38 PM 41.2969 -84.6844 231° Southwest 410 472 36,000  Level Chicago Center
Sun 07:53:40 PM 41.2219 -84.8011 230° Southwest 412 474 36,000  Level Chicago Center
Sun 07:54:42 PM 41.1481 -84.9192 230° Southwest 413 475 36,000  Level Chicago Center
Sun 07:55:44 PM 41.0742 -85.0350 230° Southwest 411 473 36,000  Level Chicago Center
Sun 07:56:46 PM 41.0022 -85.1506 231° Southwest 407 468 36,000  Level Chicago Center
Sun 07:57:48 PM 40.9264 -85.2639 228° Southwest 409 471 36,000  Level Chicago Center
Sun 07:58:50 PM 40.8306 -85.3978 227° Southwest 415 478 36,000  Level Chicago Center
Sun 07:59:52 PM 40.7522 -85.5097 227° Southwest 415 478 36,000  Level Chicago Center
Sun 08:00:54 PM 40.6733 -85.6211 227° Southwest 415 478 36,000  Level Chicago Center
Sun 08:01:56 PM 40.5942 -85.7311 227° Southwest 414 476 36,000  Level Chicago Center
Sun 08:02:58 PM 40.5167 -85.8419 227° Southwest 413 475 36,000  Level Chicago Center
Sun 08:04:00 PM 40.4386 -85.9514 227° Southwest 410 472 36,000  Level Chicago Center
Sun 08:05:02 PM 40.3447 -86.0825 227° Southwest 411 473 36,000  Level Chicago Center
Sun 08:06:04 PM 40.2617 -86.1881 224° Southwest 416 479 36,000  Level Chicago Center
Sun 08:07:06 PM 40.1717 -86.2822 219° Southwest 417 480 36,000  Level Chicago Center
Sun 08:08:08 PM 40.0828 -86.3817 221° Southwest 420 483 36,000  Level Chicago Center
Sun 08:08:28 PM 40.0447 -86.4211 218° Southwest 422 486 36,000  Level Indianapolis Center
Sun 08:09:29 PM 39.9556 -86.5194 220° Southwest 420 483 36,000  Level Indianapolis Center
Sun 08:10:31 PM 39.8672 -86.6169 220° Southwest 415 478 36,000  Level Indianapolis Center
Sun 08:11:32 PM 39.7986 -86.7383 234° Southwest 415 478 36,000  Level Indianapolis Center
Sun 08:12:34 PM 39.7292 -86.8547 232° Southwest 410 472 36,000  Level Indianapolis Center
Sun 08:13:35 PM 39.6603 -86.9739 233° Southwest 410 472 36,000  Level Indianapolis Center
Sun 08:14:37 PM 39.5928 -87.0917 233° Southwest 408 470 36,000  Level Indianapolis Center
Sun 08:15:38 PM 39.5244 -87.2078 233° Southwest 405 466 36,000  Level Indianapolis Center
Sun 08:16:40 PM 39.4553 -87.3250 233° Southwest 408 470 36,000  Level Indianapolis Center
Sun 08:17:41 PM 39.3706 -87.4706 233° Southwest 420 483 36,000  Level Indianapolis Center
Sun 08:18:43 PM 39.2992 -87.5914 233° Southwest 424 488 36,000  Level Indianapolis Center
Sun 08:19:44 PM 39.2283 -87.7133 233° Southwest 425 489 36,000  Level Indianapolis Center
Sun 08:20:45 PM 39.1553 -87.8339 232° Southwest 426 490 36,000  Level Indianapolis Center
Sun 08:21:47 PM 39.0833 -87.9550 233° Southwest 426 490 36,000  Level Indianapolis Center
Sun 08:22:48 PM 39.0122 -88.0739 232° Southwest 422 486 36,000  Level Indianapolis Center
Sun 08:23:50 PM 38.9392 -88.1950 232° Southwest 425 489 36,000  Level Indianapolis Center
Sun 08:24:52 PM 38.8647 -88.3181 232° Southwest 428 493 36,000  Level Kansas City Center
Sun 08:25:56 PM 38.7781 -88.4631 233° Southwest 427 491 36,000  Level Kansas City Center
Sun 08:26:56 PM 38.7047 -88.5817 232° Southwest 425 489 36,000  Level Kansas City Center
Sun 08:28:00 PM 38.6439 -88.6811 232° Southwest 423 487 36,000  Level Kansas City Center
Sun 08:29:01 PM 38.5533 -88.8300 232° Southwest 432 497 36,000  Level Kansas City Center
Sun 08:30:01 PM 38.4789 -88.9506 232° Southwest 432 497 36,000  Level Kansas City Center
Sun 08:31:05 PM 38.3989 -89.0778 231° Southwest 429 494 36,000  Level Kansas City Center
Sun 08:32:05 PM 38.3283 -89.1942 232° Southwest 419 482 36,000  Level Kansas City Center
Sun 08:33:06 PM 38.2572 -89.3092 232° Southwest 414 476 36,000  Level Kansas City Center
Sun 08:34:10 PM 38.1806 -89.4325 232° Southwest 414 476 36,000  Level Kansas City Center
Sun 08:35:12 PM 38.1083 -89.5475 231° Southwest 415 478 36,000  Level Kansas City Center
Sun 08:36:13 PM 38.0342 -89.6656 231° Southwest 423 487 36,000  Level Kansas City Center
Sun 08:37:14 PM 37.9547 -89.7914 231° Southwest 425 489 36,000  Level Kansas City Center
Sun 08:38:16 PM 37.8803 -89.9089 231° Southwest 426 490 36,000  Level Kansas City Center
Sun 08:39:19 PM 37.8094 -90.0200 231° Southwest 424 488 36,000  Level Kansas City Center
Sun 08:40:20 PM 37.7372 -90.1339 231° Southwest 420 483 36,000  Level Kansas City Center
Sun 08:41:22 PM 37.6650 -90.2481 231° Southwest 417 480 36,000  Level Kansas City Center
Sun 08:42:23 PM 37.6014 -90.3692 236° Southwest 412 474 36,000  Level Kansas City Center
Sun 08:43:25 PM 37.5369 -90.4900 236° Southwest 414 476 36,000  Level Kansas City Center
Sun 08:44:28 PM 37.4575 -90.6361 236° Southwest 419 482 36,000  Level Kansas City Center
Sun 08:45:29 PM 37.3919 -90.7561 236° Southwest 418 481 36,000  Level Kansas City Center
Sun 08:46:30 PM 37.3331 -90.8644 236° Southwest 410 472 36,000  Level Kansas City Center
Sun 08:47:34 PM 37.2531 -91.0083 235° Southwest 417 480 36,000  Level Memphis Center
Sun 08:48:35 PM 37.1903 -91.1256 236° Southwest 410 472 36,000  Level Kansas City Center
Sun 08:49:36 PM 37.1233 -91.2481 236° Southwest 420 483 36,000  Level Kansas City Center
Sun 08:50:37 PM 37.0556 -91.3708 235° Southwest 424 488 36,000  Level Kansas City Center
Sun 08:51:41 PM 36.9903 -91.4922 236° Southwest 421 484 36,000  Level Kansas City Center
Sun 08:52:41 PM 36.9219 -91.6133 235° Southwest 422 486 36,000  Level Kansas City Center
Sun 08:53:34 PM 36.8578 -91.7311 236° Southwest 419 482 36,000  Level Memphis Center
Sun 08:54:34 PM 36.7939 -91.8467 235° Southwest 419 482 36,000  Level Memphis Center
Sun 08:55:34 PM 36.7278 -91.9619 234° Southwest 419 482 36,000  Level Memphis Center
Sun 08:56:34 PM 36.6703 -92.0694 236° Southwest 419 482 36,000  Level Memphis Center
Sun 08:57:34 PM 36.6017 -92.1869 234° Southwest 419 482 36,000  Level Memphis Center
Sun 08:58:34 PM 36.5333 -92.3067 235° Southwest 424 488 36,000  Level Memphis Center
Sun 08:59:34 PM 36.4625 -92.4342 235° Southwest 419 482 36,000  Level Memphis Center
Sun 09:00:34 PM 36.3981 -92.5483 235° Southwest 419 482 36,000  Level Memphis Center
Sun 09:01:34 PM 36.3333 -92.6600 234° Southwest 414 476 36,000  Level Memphis Center
Sun 09:02:34 PM 36.2686 -92.7742 235° Southwest 414 476 36,000  Level Memphis Center
Sun 09:03:34 PM 36.1997 -92.8931 234° Southwest 422 486 36,000  Level Memphis Center
Sun 09:04:34 PM 36.1303 -93.0142 235° Southwest 422 486 36,000  Level Memphis Center
Sun 09:05:34 PM 36.0611 -93.1325 234° Southwest 427 491 36,000  Level Memphis Center
Sun 09:06:34 PM 35.9958 -93.2458 235° Southwest 427 491 36,000  Level Memphis Center
Sun 09:07:34 PM 35.9264 -93.3614 233° Southwest 421 484 36,000  Level Memphis Center
Sun 09:08:34 PM 35.8633 -93.4717 235° Southwest 416 479 36,000  Level Memphis Center
Sun 09:09:34 PM 35.7981 -93.5819 234° Southwest 416 479 36,000  Level Memphis Center
Sun 09:10:34 PM 35.7350 -93.6767 231° Southwest 416 479 36,000  Level Memphis Center
Sun 09:11:34 PM 35.6611 -93.7836 230° Southwest 411 473 36,000  Level Memphis Center
Sun 09:12:34 PM 35.5853 -93.8875 228° Southwest 411 473 36,000  Level Memphis Center
Sun 09:13:34 PM 35.5094 -93.9889 227° Southwest 411 473 36,000  Level Memphis Center
Sun 09:14:34 PM 35.4375 -94.0928 230° Southwest 411 473 36,000  Level Memphis Center
Sun 09:16:54 PM 35.2603 -94.3422 229° Southwest 396 456 36,000  Level Fort Worth Center
Sun 09:17:54 PM 35.1856 -94.4442 228° Southwest 401 461 36,000  Level Fort Worth Center
Sun 09:18:54 PM 35.1269 -94.5247 228° Southwest 401 461 36,000  Level Fort Worth Center
Sun 09:19:54 PM 35.0481 -94.6339 229° Southwest 393 452 36,000  Level Fort Worth Center
Sun 09:20:54 PM 34.9667 -94.7278 223° Southwest 393 452 36,000  Level Fort Worth Center
Sun 09:21:54 PM 34.8831 -94.8192 222° Southwest 405 466 36,000  Level Fort Worth Center
Sun 09:22:54 PM 34.7892 -94.9256 223° Southwest 411 473 36,000 -400 Level Fort Worth Center
Sun 09:23:54 PM 34.7033 -95.0114 219° Southwest 411 473 35,200 -500 Descending Fort Worth Center
Sun 09:24:54 PM 34.5869 -95.0350 189° South 400 460 35,000 -100 Descending Fort Worth Center
Sun 09:25:54 PM 34.4589 -94.9906 164° South 424 488 35,000 -700 Level Fort Worth Center
Sun 09:26:54 PM 34.3286 -94.9464 164° South 466 536 33,600 -1,450 Descending Fort Worth Center
Sun 09:27:54 PM 34.2006 -94.9025 164° South 471 542 32,100 -1,500 Descending Fort Worth Center
Sun 09:28:54 PM 34.0728 -94.8811 172° South 471 542 30,600 -1,500 Descending Fort Worth Center
Sun 09:29:54 PM 33.9611 -94.9344 202° Southwest 431 496 29,100 -1,500 Descending Fort Worth Center
Sun 09:30:54 PM 33.9006 -95.0436 236° Southwest 378 435 27,600 -1,500 Descending Fort Worth Center
Sun 09:31:54 PM 33.8569 -95.1675 247° West 375 432 26,100 -1,500 Descending Fort Worth Center
Sun 09:32:54 PM 33.8111 -95.2861 245° Southwest 388 447 24,600 -1,050 Descending Fort Worth Center
Sun 09:33:54 PM 33.7672 -95.4097 247° West 393 452 24,000 -300 Descending Fort Worth Center
Sun 09:34:54 PM 33.7189 -95.5331 245° Southwest 404 465 24,000  Level Fort Worth Center
Sun 09:35:54 PM 33.6769 -95.6536 247° West 410 472 24,000  Level Fort Worth Center
Sun 09:36:54 PM 33.6328 -95.7794 247° West 410 472 24,000  Level Fort Worth Center
Sun 09:37:54 PM 33.5842 -95.9050 245° Southwest 410 472 24,000 -1,350 Level Fort Worth Center
Sun 09:38:54 PM 33.5397 -96.0253 246° West 399 459 21,300 -3,450 Descending Fort Worth Center
Sun 09:39:54 PM 33.5011 -96.1281 246° West 392 451 17,100 -4,100 Descending Fort Worth Center
Sun 09:40:54 PM 33.4564 -96.2508 246° West 371 427 13,100 -2,950 Descending Fort Worth Center
Sun 09:41:54 PM 33.4236 -96.3358 245° Southwest 335 386 11,200 -1,100 Descending Fort Worth Center
Sun 09:42:54 PM 33.3806 -96.4233 240° Southwest 294 338 10,900 -850 Descending Fort Worth Center
Sun 09:43:54 PM 33.3350 -96.4861 229° Southwest 279 321 9,500 -1,500 Descending Fort Worth Center
Sun 09:44:54 PM 33.3022 -96.5733 246° West 266 306 7,900 -1,550 Descending Fort Worth Center
Sun 09:45:54 PM 33.2736 -96.6531 247° West 261 300 6,400 -1,450 Descending Fort Worth Center
Sun 09:46:54 PM 33.2489 -96.7253 248° West 261 300 5,000 -700 Descending Fort Worth Center
Sun 09:47:54 PM 33.2161 -96.8125 246° West 256 295 5,000  Level Fort Worth Center
Sun 09:48:54 PM 33.1850 -96.8747 239° Southwest 250 288 5,000  Level Fort Worth Center
Sun 09:49:54 PM 33.1478 -96.9419 237° Southwest 227 261 5,000 -500 Level Fort Worth Center
Sun 09:50:54 PM 33.1228 -96.9942 240° Southwest 213 245 4,000 -550 Descending Fort Worth Center
Sun 09:51:54 PM 33.0728 -97.0094 194° South 171 197 3,900 -500 Descending Fort Worth Center
Sun 09:52:54 PM 33.0269 -97.0094 180° South 171 197 3,000 -950 Descending Fort Worth Center
Sun 09:53:54 PM 32.9808 -97.0097 180° South 171 197 2,000 -1,000 Descending Fort Worth Center

Login

Don't have an account? Register now (free) for customized features, flight alerts, and more!